Time;durP1;ratioP1;P1;durP2;ratioP2;P2;SDS_P1;SDS_P2;PMS_P1;PMS_P2;Temp;Humidity;BMP_temperature;BMP_pressure;BME280_temperature;BME280_humidity;BME280_pressure;Samples;Min_cycle;Max_cycle;Signal;HPM_P1;HPM_P2
2024/04/17 00:00:37;;;;;;;18.83;3.45;;;5.60;99.90;;;;;;5415859;26;20027;-76
2024/04/17 00:03:02;;;;;;;14.75;3.65;;;5.40;99.90;;;;;;5395449;26;20035;-76
2024/04/17 00:05:28;;;;;;;15.00;3.50;;;5.30;99.90;;;;;;5432106;26;19999;-76
2024/04/17 00:07:53;;;;;;;12.90;3.10;;;5.30;99.90;;;;;;5436210;26;20011;-75
2024/04/17 00:10:19;;;;;;;10.77;4.13;;;5.20;99.90;;;;;;5409740;26;20007;-77
2024/04/17 00:12:44;;;;;;;9.45;3.47;;;5.10;99.90;;;;;;5422283;26;19999;-76
2024/04/17 00:15:10;;;;;;;16.40;3.30;;;5.10;99.90;;;;;;5434526;26;20019;-75
2024/04/17 00:17:35;;;;;;;10.63;2.67;;;5.30;99.90;;;;;;5418532;26;20011;-76
2024/04/17 00:20:01;;;;;;;16.25;4.13;;;5.10;99.90;;;;;;5442675;26;20003;-76
2024/04/17 00:22:27;;;;;;;12.55;2.78;;;5.00;99.90;;;;;;5408949;26;19998;-76
2024/04/17 00:24:53;;;;;;;18.77;3.53;;;4.90;99.90;;;;;;5433647;26;20535;-75
2024/04/17 00:27:18;;;;;;;12.15;2.63;;;4.80;99.90;;;;;;5405315;26;20003;-76
2024/04/17 00:29:44;;;;;;;13.85;2.90;;;4.80;99.90;;;;;;5429191;26;20343;-76
2024/04/17 00:32:09;;;;;;;16.38;2.85;;;5.00;99.90;;;;;;5432924;26;20003;-76
2024/04/17 00:34:35;;;;;;;17.13;3.40;;;4.80;99.90;;;;;;5438087;26;20032;-76
2024/04/17 00:37:01;;;;;;;14.27;3.10;;;4.90;99.90;;;;;;5432890;26;21221;-76
2024/04/17 00:39:26;;;;;;;12.40;3.47;;;4.80;99.90;;;;;;5435816;26;19998;-76
2024/04/17 00:41:52;;;;;;;12.85;2.65;;;4.80;99.90;;;;;;5421101;26;19998;-76
2024/04/17 00:44:17;;;;;;;9.00;2.60;;;4.80;99.90;;;;;;5396568;26;20006;-76
2024/04/17 00:46:43;;;;;;;13.80;3.22;;;4.80;99.90;;;;;;5365539;26;20083;-75
2024/04/17 00:49:09;;;;;;;18.30;4.53;;;4.80;99.90;;;;;;5421837;26;20050;-77
2024/04/17 00:51:35;;;;;;;18.83;4.13;;;4.50;99.90;;;;;;5377084;26;19999;-76
2024/04/17 00:54:00;;;;;;;19.30;3.78;;;4.50;99.90;;;;;;5433146;26;20003;-76
2024/04/17 00:56:26;;;;;;;6.38;2.38;;;4.50;99.90;;;;;;5418147;26;20349;-75
2024/04/17 00:58:51;;;;;;;16.27;3.50;;;4.60;99.90;;;;;;5429160;26;20332;-76
2024/04/17 01:01:17;;;;;;;10.70;3.10;;;4.50;99.90;;;;;;5404936;26;20000;-75
2024/04/17 01:03:42;;;;;;;14.98;4.00;;;4.40;99.90;;;;;;5430020;26;20067;-75
2024/04/17 01:06:08;;;;;;;17.80;3.63;;;4.50;99.90;;;;;;5435298;26;20011;-75
2024/04/17 01:08:33;;;;;;;25.05;3.00;;;4.30;99.90;;;;;;5429249;26;20000;-77
2024/04/17 01:11:00;;;;;;;18.13;3.72;;;4.30;99.90;;;;;;5435965;26;19996;-76
2024/04/17 01:13:25;;;;;;;8.80;2.85;;;4.40;99.90;;;;;;5410418;26;20427;-75
2024/04/17 01:15:51;;;;;;;19.77;3.50;;;4.30;99.90;;;;;;5429684;26;20010;-77
2024/04/17 01:18:17;;;;;;;15.20;3.55;;;4.30;99.90;;;;;;5432721;26;19999;-76
2024/04/17 01:20:43;;;;;;;18.58;3.22;;;4.10;99.90;;;;;;5408160;26;20003;-77
2024/04/17 01:23:08;;;;;;;12.75;3.33;;;4.10;99.90;;;;;;5433678;26;20036;-76
2024/04/17 01:25:34;;;;;;;14.38;3.35;;;4.20;99.90;;;;;;5428898;26;20336;-78
2024/04/17 01:27:59;;;;;;;11.57;2.78;;;4.20;99.90;;;;;;5404415;26;20038;-76
2024/04/17 01:30:25;;;;;;;17.40;3.63;;;4.30;99.90;;;;;;5415106;26;20057;-75
2024/04/17 01:32:50;;;;;;;14.65;3.50;;;4.20;99.90;;;;;;5425464;26;20014;-77
2024/04/17 01:35:16;;;;;;;7.90;2.90;;;4.10;99.90;;;;;;5434615;26;20467;-77
2024/04/17 01:37:41;;;;;;;17.13;3.55;;;4.20;99.90;;;;;;5440880;26;20039;-76
2024/04/17 01:40:07;;;;;;;11.05;2.85;;;4.20;99.90;;;;;;5434492;26;20350;-75
2024/04/17 01:42:33;;;;;;;8.23;2.35;;;4.20;99.90;;;;;;5431667;26;20003;-76
2024/04/17 01:44:59;;;;;;;6.55;2.30;;;4.20;99.90;;;;;;5413723;26;20003;-75
2024/04/17 01:47:24;;;;;;;18.40;3.58;;;4.20;99.90;;;;;;5404092;26;19996;-77
2024/04/17 01:49:50;;;;;;;15.18;3.08;;;4.20;99.90;;;;;;5438369;26;20347;-76
2024/04/17 01:52:15;;;;;;;8.55;2.05;;;4.30;99.90;;;;;;5437646;26;20011;-76
2024/04/17 01:54:41;;;;;;;10.77;3.47;;;4.10;99.90;;;;;;5431111;26;20007;-76
2024/04/17 01:57:06;;;;;;;13.27;2.35;;;4.10;99.90;;;;;;5438721;26;20074;-76
2024/04/17 01:59:32;;;;;;;12.57;2.88;;;4.10;99.90;;;;;;5428759;26;20032;-77
2024/04/17 02:01:57;;;;;;;13.55;2.75;;;4.20;99.90;;;;;;5440628;26;20011;-75
2024/04/17 02:04:23;;;;;;;11.50;4.38;;;4.00;99.90;;;;;;5443230;26;20013;-76
2024/04/17 02:06:48;;;;;;;6.75;2.05;;;4.00;99.90;;;;;;5445926;26;20101;-76
2024/04/17 02:09:14;;;;;;;13.20;3.88;;;3.90;99.90;;;;;;5434293;26;20017;-76
2024/04/17 02:11:39;;;;;;;9.90;2.72;;;3.80;99.90;;;;;;5400919;26;19999;-77
2024/04/17 02:14:05;;;;;;;11.20;2.72;;;3.80;99.90;;;;;;5409693;26;20079;-76
2024/04/17 02:16:30;;;;;;;9.07;2.78;;;3.80;99.90;;;;;;5435969;26;20097;-76
2024/04/17 02:18:56;;;;;;;12.05;2.80;;;3.90;99.90;;;;;;5410533;26;19999;-76
2024/04/17 02:21:21;;;;;;;5.40;1.60;;;3.80;99.90;;;;;;5402956;26;20037;-76
2024/04/17 02:23:47;;;;;;;7.45;2.17;;;3.70;99.90;;;;;;5421033;26;20350;-77
2024/04/17 02:26:13;;;;;;;3.55;1.42;;;3.70;99.90;;;;;;5439099;26;19999;-76
2024/04/17 02:28:38;;;;;;;10.20;3.03;;;3.70;99.90;;;;;;5402616;26;20015;-76
2024/04/17 02:31:04;;;;;;;8.00;2.70;;;3.80;99.90;;;;;;5427805;26;20007;-76
2024/04/17 02:33:29;;;;;;;13.48;3.10;;;3.60;99.90;;;;;;5410088;26;21286;-76
2024/04/17 02:35:55;;;;;;;7.72;2.95;;;3.40;99.90;;;;;;5430732;26;20455;-77
2024/04/17 02:38:20;;;;;;;10.60;2.35;;;3.50;99.90;;;;;;5428499;26;20039;-76
2024/04/17 02:40:46;;;;;;;9.77;2.80;;;3.50;99.90;;;;;;5423904;26;20079;-77
2024/04/17 02:43:11;;;;;;;14.93;3.38;;;3.70;99.90;;;;;;5435506;26;19999;-75
2024/04/17 02:45:37;;;;;;;8.95;1.77;;;3.50;99.90;;;;;;5430064;26;20003;-76
2024/04/17 02:48:03;;;;;;;11.73;2.78;;;3.60;99.90;;;;;;5431200;26;20007;-76
2024/04/17 02:50:28;;;;;;;5.93;2.13;;;3.90;99.90;;;;;;5436713;26;20015;-76
2024/04/17 02:52:54;;;;;;;10.07;2.70;;;3.70;99.90;;;;;;5437445;26;20074;-75
2024/04/17 02:55:19;;;;;;;13.52;3.30;;;3.90;99.90;;;;;;5397910;26;20726;-76
2024/04/17 02:57:45;;;;;;;9.63;2.70;;;3.90;99.90;;;;;;5402669;26;20080;-76
2024/04/17 03:00:11;;;;;;;13.15;2.95;;;3.80;99.90;;;;;;5413089;26;20424;-76
2024/04/17 03:02:37;;;;;;;19.92;2.95;;;3.60;99.90;;;;;;5430727;26;20009;-76
2024/04/17 03:05:03;;;;;;;9.07;2.80;;;3.40;99.90;;;;;;5432461;26;20355;-76
2024/04/17 03:07:28;;;;;;;10.57;3.05;;;3.30;99.90;;;;;;5405730;26;20128;-76
2024/04/17 03:09:54;;;;;;;15.93;3.80;;;3.40;99.90;;;;;;5401401;26;20079;-76
2024/04/17 03:12:19;;;;;;;12.65;3.38;;;3.40;99.90;;;;;;5428534;26;19999;-76
2024/04/17 03:14:45;;;;;;;19.33;3.45;;;3.50;99.90;;;;;;5408396;26;20027;-76
2024/04/17 03:17:10;;;;;;;16.25;2.75;;;3.20;99.90;;;;;;5436058;26;20015;-76
2024/04/17 03:19:42;;;;;;;10.50;3.08;;;3.20;99.90;;;;;;5430742;26;20338;-76
2024/04/17 03:22:08;;;;;;;7.65;2.58;;;3.30;99.90;;;;;;5397994;26;20007;-77
2024/04/17 03:24:33;;;;;;;13.55;3.72;;;3.40;99.90;;;;;;5433990;26;19999;-76
2024/04/17 03:27:02;;;;;;;10.88;2.65;;;3.30;99.90;;;;;;5406608;26;20021;-76
2024/04/17 03:29:27;;;;;;;13.30;3.47;;;3.20;99.90;;;;;;5428707;26;19998;-76
2024/04/17 03:31:53;;;;;;;11.90;2.50;;;3.20;99.90;;;;;;5431217;26;20031;-76
2024/04/17 03:34:19;;;;;;;10.65;1.63;;;3.20;99.90;;;;;;5376806;26;20007;-76
2024/04/17 03:36:44;;;;;;;7.47;2.65;;;3.20;99.90;;;;;;5431183;26;20011;-76
2024/04/17 03:39:10;;;;;;;9.55;3.33;;;3.20;99.90;;;;;;5380152;26;20018;-76
2024/04/17 03:41:35;;;;;;;10.40;2.67;;;3.20;99.90;;;;;;5397972;26;20015;-77
2024/04/17 03:44:01;;;;;;;10.93;3.70;;;3.20;99.90;;;;;;5404385;26;20356;-76
2024/04/17 03:46:26;;;;;;;6.72;3.25;;;3.20;99.90;;;;;;5432430;26;20097;-76
2024/04/17 03:48:52;;;;;;;10.88;3.38;;;3.10;99.90;;;;;;5400864;26;20022;-76
2024/04/17 03:51:18;;;;;;;12.05;3.13;;;3.10;99.90;;;;;;5402978;26;20011;-77
2024/04/17 03:53:43;;;;;;;7.90;2.33;;;3.10;99.90;;;;;;5378874;26;20006;-77
2024/04/17 03:56:09;;;;;;;8.88;4.15;;;3.10;99.90;;;;;;5406283;26;20352;-76
2024/04/17 03:58:34;;;;;;;16.13;3.67;;;3.10;99.90;;;;;;5399260;26;20047;-76
2024/04/17 04:01:00;;;;;;;17.10;4.32;;;3.00;99.90;;;;;;5431544;26;19995;-77
2024/04/17 04:03:25;;;;;;;15.38;4.47;;;3.00;99.90;;;;;;5408432;26;20003;-76
2024/04/17 04:05:51;;;;;;;12.70;4.25;;;2.80;99.90;;;;;;5396819;26;19999;-76
2024/04/17 04:08:16;;;;;;;23.05;4.40;;;2.70;99.90;;;;;;5434486;26;20013;-77
2024/04/17 04:10:42;;;;;;;17.38;4.70;;;2.70;99.90;;;;;;5408964;26;20010;-78
2024/04/17 04:13:07;;;;;;;11.70;3.95;;;2.80;99.90;;;;;;5437579;26;20015;-77
2024/04/17 04:15:33;;;;;;;11.23;4.00;;;2.80;99.90;;;;;;5430306;26;19999;-76
2024/04/17 04:17:58;;;;;;;11.95;3.60;;;2.80;99.90;;;;;;5425702;26;20035;-76
2024/04/17 04:20:24;;;;;;;20.90;4.53;;;3.00;99.90;;;;;;5399312;26;20067;-77
2024/04/17 04:22:49;;;;;;;12.60;4.85;;;3.00;99.90;;;;;;5379300;26;20030;-78
2024/04/17 04:25:15;;;;;;;14.35;4.13;;;3.00;99.90;;;;;;5384347;26;20536;-78
2024/04/17 04:27:41;;;;;;;7.47;3.83;;;2.90;99.90;;;;;;5428263;26;20392;-76
2024/04/17 04:30:07;;;;;;;14.35;5.57;;;3.00;99.90;;;;;;5434365;26;21054;-76
2024/04/17 04:32:33;;;;;;;14.73;5.78;;;2.90;99.90;;;;;;5432893;26;19998;-76
2024/04/17 04:34:58;;;;;;;22.52;5.43;;;2.90;99.90;;;;;;5421952;26;20013;-76
2024/04/17 04:37:25;;;;;;;9.38;3.30;;;3.00;99.90;;;;;;5398917;26;20336;-77
2024/04/17 04:39:53;;;;;;;15.60;3.95;;;3.10;99.90;;;;;;5404574;26;20000;-77
2024/04/17 04:42:19;;;;;;;18.83;6.72;;;3.20;99.90;;;;;;5424350;26;20410;-76
2024/04/17 04:44:45;;;;;;;9.93;4.90;;;3.20;99.90;;;;;;5411854;26;19994;-76
2024/04/17 04:47:10;;;;;;;53.45;8.52;;;3.00;99.90;;;;;;5422374;26;20015;-77
2024/04/17 04:49:36;;;;;;;46.10;7.53;;;3.00;99.90;;;;;;5437655;26;20014;-77
2024/04/17 04:52:02;;;;;;;59.55;7.38;;;2.80;99.90;;;;;;5428991;26;20011;-77
2024/04/17 04:54:27;;;;;;;21.45;5.68;;;2.80;99.90;;;;;;5396167;26;20027;-76
2024/04/17 04:56:53;;;;;;;85.95;9.43;;;2.70;99.90;;;;;;5403892;26;20003;-76
2024/04/17 04:59:19;;;;;;;15.00;5.90;;;2.70;99.90;;;;;;5398540;26;20013;-76
2024/04/17 05:01:45;;;;;;;77.88;8.32;;;2.70;99.90;;;;;;5435668;26;20091;-77
2024/04/17 05:04:11;;;;;;;8.60;4.32;;;2.70;99.90;;;;;;5430701;26;19999;-77
2024/04/17 05:06:36;;;;;;;194.00;17.05;;;2.80;99.90;;;;;;5397988;26;20010;-76
2024/04/17 05:09:02;;;;;;;41.10;7.88;;;2.80;99.90;;;;;;5395751;26;20459;-77
2024/04/17 05:11:28;;;;;;;65.38;10.68;;;2.90;99.90;;;;;;5406231;26;20065;-76
2024/04/17 05:13:53;;;;;;;27.83;9.57;;;2.90;99.90;;;;;;5399946;26;20444;-76
2024/04/17 05:16:19;;;;;;;18.35;7.88;;;2.90;99.90;;;;;;5435198;26;20013;-76
2024/04/17 05:18:45;;;;;;;18.00;7.80;;;3.00;99.90;;;;;;5407086;26;20010;-76
2024/04/17 05:21:10;;;;;;;28.05;11.07;;;3.10;99.90;;;;;;5428364;26;20040;-78
2024/04/17 05:23:36;;;;;;;15.48;8.25;;;3.20;99.90;;;;;;5402102;26;20007;-76
2024/04/17 05:26:01;;;;;;;21.58;10.65;;;3.20;99.90;;;;;;5396344;26;20012;-76
2024/04/17 05:28:27;;;;;;;21.17;10.70;;;3.20;99.90;;;;;;5424735;26;20448;-78
2024/04/17 05:30:56;;;;;;;10.85;5.30;;;3.20;99.90;;;;;;5379450;26;20003;-77
2024/04/17 05:33:25;;;;;;;12.10;4.95;;;3.30;99.90;;;;;;5429279;26;20035;-77
2024/04/17 05:35:50;;;;;;;11.68;6.57;;;3.40;99.90;;;;;;5437411;26;20018;-76
2024/04/17 05:38:16;;;;;;;11.50;6.85;;;3.50;99.90;;;;;;5423799;26;20380;-76
2024/04/17 05:40:45;;;;;;;20.73;8.93;;;3.60;99.90;;;;;;5427657;26;20017;-77
2024/04/17 05:43:10;;;;;;;17.13;8.32;;;3.60;99.90;;;;;;5437972;26;20459;-76
2024/04/17 05:45:36;;;;;;;18.90;8.85;;;3.80;99.90;;;;;;5431591;26;20044;-76
2024/04/17 05:48:01;;;;;;;21.77;9.30;;;3.90;99.90;;;;;;5401425;26;20039;-77
2024/04/17 05:50:27;;;;;;;17.52;7.75;;;4.00;99.90;;;;;;5393284;26;20018;-76
2024/04/17 05:52:52;;;;;;;9.35;5.00;;;4.00;99.90;;;;;;5396149;26;20360;-77
2024/04/17 05:55:18;;;;;;;19.15;7.70;;;4.10;99.90;;;;;;5425916;26;20022;-76
2024/04/17 05:57:43;;;;;;;13.63;6.32;;;4.30;99.90;;;;;;5424352;26;20003;-76
2024/04/17 06:00:10;;;;;;;14.65;6.68;;;4.50;99.90;;;;;;5407450;26;20053;-76
2024/04/17 06:02:36;;;;;;;10.40;3.75;;;4.50;99.90;;;;;;5379479;26;20008;-77
2024/04/17 06:05:02;;;;;;;7.45;4.85;;;4.60;99.90;;;;;;5411038;26;20451;-77
2024/04/17 06:07:28;;;;;;;23.42;8.88;;;4.70;99.90;;;;;;5401238;26;20072;-76
2024/04/17 06:09:53;;;;;;;15.25;7.03;;;4.80;99.90;;;;;;5392705;26;20082;-78
2024/04/17 06:12:19;;;;;;;21.90;11.02;;;4.90;99.90;;;;;;5427378;26;20015;-76
2024/04/17 06:14:44;;;;;;;28.60;11.45;;;4.90;99.90;;;;;;5420219;26;20044;-76
2024/04/17 06:17:10;;;;;;;12.00;6.35;;;5.00;99.90;;;;;;5431025;26;20011;-76
2024/04/17 06:19:36;;;;;;;23.58;9.38;;;5.10;99.90;;;;;;5431121;26;20004;-77
2024/04/17 06:22:10;;;;;;;27.17;10.07;;;5.30;99.90;;;;;;5427897;26;20014;-76
2024/04/17 06:24:35;;;;;;;13.57;7.32;;;5.40;99.90;;;;;;5401121;26;20003;-77
2024/04/17 06:27:01;;;;;;;37.55;11.50;;;5.40;99.90;;;;;;5398655;26;20015;-76
2024/04/17 06:29:26;;;;;;;21.23;10.48;;;5.50;99.90;;;;;;5423145;26;20015;-76
2024/04/17 06:31:52;;;;;;;25.35;10.63;;;5.60;99.90;;;;;;5408255;26;20018;-77
2024/04/17 06:34:19;;;;;;;24.48;10.68;;;5.60;99.90;;;;;;5405254;26;20343;-76
2024/04/17 06:36:45;;;;;;;28.65;13.07;;;5.70;99.90;;;;;;5422886;26;20592;-76
2024/04/17 06:39:10;;;;;;;11.65;5.40;;;5.70;99.90;;;;;;5394961;26;20639;-76
2024/04/17 06:41:36;;;;;;;26.58;11.82;;;5.70;99.90;;;;;;5380013;26;20428;-76
2024/04/17 06:44:02;;;;;;;20.02;11.27;;;5.80;99.90;;;;;;5380664;26;20455;-77
2024/04/17 06:46:27;;;;;;;21.42;11.23;;;5.80;99.90;;;;;;5436408;26;20007;-76
2024/04/17 06:48:53;;;;;;;30.17;13.95;;;5.80;99.90;;;;;;5394570;26;20000;-76
2024/04/17 06:51:18;;;;;;;24.33;11.93;;;5.80;99.90;;;;;;5422860;26;20015;-75
2024/04/17 06:53:44;;;;;;;30.00;15.95;;;5.80;99.90;;;;;;5428788;26;20336;-76
2024/04/17 06:56:09;;;;;;;22.70;11.90;;;5.80;99.90;;;;;;5368897;26;21506;-75
2024/04/17 06:58:43;;;;;;;31.52;15.43;;;5.90;99.90;;;;;;5407636;26;20000;-76
2024/04/17 07:01:09;;;;;;;22.52;13.30;;;5.90;99.90;;;;;;5396540;26;19999;-77
2024/04/17 07:03:34;;;;;;;28.73;14.40;;;5.90;99.90;;;;;;5431587;26;20019;-75
2024/04/17 07:06:01;;;;;;;16.67;9.38;;;5.90;99.90;;;;;;5405589;26;20345;-75
2024/04/17 07:08:29;;;;;;;20.80;12.32;;;5.90;99.90;;;;;;5435244;26;20014;-75
2024/04/17 07:11:03;;;;;;;21.75;12.15;;;6.00;99.90;;;;;;5433508;26;20003;-75
2024/04/17 07:13:29;;;;;;;23.90;14.60;;;5.90;99.90;;;;;;5439049;26;20020;-76
2024/04/17 07:15:56;;;;;;;28.73;16.38;;;6.00;99.90;;;;;;5436361;26;20011;-77
2024/04/17 07:18:23;;;;;;;32.08;14.02;;;6.00;99.90;;;;;;5429438;26;20500;-76
2024/04/17 07:20:49;;;;;;;32.35;15.15;;;6.00;99.90;;;;;;5410095;26;20499;-75
2024/04/17 07:23:15;;;;;;;24.17;15.18;;;6.00;99.90;;;;;;5401015;26;19999;-77
2024/04/17 07:25:41;;;;;;;17.48;9.13;;;6.00;99.90;;;;;;5435472;26;20084;-76
2024/04/17 07:28:06;;;;;;;18.08;10.73;;;6.00;99.90;;;;;;5428660;26;20477;-75
2024/04/17 07:30:32;;;;;;;22.30;12.63;;;6.00;99.90;;;;;;5374272;26;20017;-75
2024/04/17 07:32:57;;;;;;;18.30;11.00;;;6.10;99.90;;;;;;5431974;26;20035;-75
2024/04/17 07:35:23;;;;;;;20.42;11.80;;;6.10;99.90;;;;;;5397990;26;20000;-75
2024/04/17 07:37:48;;;;;;;28.33;15.68;;;6.10;99.90;;;;;;5439522;26;20014;-75
2024/04/17 07:40:15;;;;;;;21.90;12.77;;;6.10;99.90;;;;;;5400113;26;20007;-76
2024/04/17 07:42:41;;;;;;;25.23;14.93;;;6.20;99.90;;;;;;5402323;26;20017;-75
2024/04/17 07:45:06;;;;;;;20.80;14.35;;;6.20;99.90;;;;;;5428663;26;20002;-75
2024/04/17 07:47:32;;;;;;;21.73;12.43;;;6.20;99.90;;;;;;5394484;26;20503;-76
2024/04/17 07:49:57;;;;;;;23.55;14.57;;;6.20;99.90;;;;;;5425205;26;20020;-75
2024/04/17 07:52:23;;;;;;;23.73;12.75;;;6.30;99.90;;;;;;5436795;26;20331;-76
2024/04/17 07:54:53;;;;;;;23.27;13.20;;;6.40;99.90;;;;;;5366402;26;20470;-77
2024/04/17 07:57:18;;;;;;;14.82;9.77;;;6.40;99.90;;;;;;5404629;26;20860;-76
2024/04/17 07:59:44;;;;;;;17.83;12.55;;;6.40;99.90;;;;;;5397613;26;20092;-76
2024/04/17 08:02:09;;;;;;;21.27;12.73;;;6.50;99.90;;;;;;5404178;26;20397;-76
2024/04/17 08:04:35;;;;;;;16.35;10.27;;;6.50;99.90;;;;;;5395795;26;19999;-75
2024/04/17 08:07:00;;;;;;;22.17;12.13;;;6.60;99.90;;;;;;5434615;26;20010;-76
2024/04/17 08:09:28;;;;;;;17.73;10.77;;;6.70;99.90;;;;;;5366852;26;20003;-76
2024/04/17 08:11:54;;;;;;;23.95;12.13;;;6.80;99.90;;;;;;5428930;26;19998;-77
2024/04/17 08:14:21;;;;;;;13.60;9.05;;;6.90;99.90;;;;;;5399556;26;20125;-76
2024/04/17 08:16:48;;;;;;;13.55;8.98;;;6.90;99.90;;;;;;5432648;26;20559;-76
2024/04/17 08:19:14;;;;;;;17.88;8.52;;;6.90;99.90;;;;;;5421941;26;20003;-75
2024/04/17 08:21:40;;;;;;;11.13;7.68;;;6.90;99.90;;;;;;5390960;26;20507;-76
2024/04/17 08:24:05;;;;;;;9.27;5.25;;;7.00;99.90;;;;;;5421313;26;20018;-76
2024/04/17 08:26:31;;;;;;;11.20;6.50;;;6.90;99.90;;;;;;5421046;26;20011;-77
2024/04/17 08:28:56;;;;;;;5.85;4.68;;;7.00;99.90;;;;;;5424932;26;20003;-75
2024/04/17 08:31:22;;;;;;;5.05;3.22;;;6.90;99.90;;;;;;5435297;26;20101;-75
2024/04/17 08:33:47;;;;;;;4.60;3.85;;;6.90;99.90;;;;;;5389832;26;20357;-76
2024/04/17 08:36:13;;;;;;;4.60;2.63;;;6.90;99.90;;;;;;5426445;26;19995;-76
2024/04/17 08:38:41;;;;;;;7.30;2.63;;;6.90;99.90;;;;;;5429120;26;20011;-76
2024/04/17 08:41:07;;;;;;;4.32;2.40;;;7.00;99.90;;;;;;5415921;26;20074;-76
2024/04/17 08:43:32;;;;;;;5.00;2.25;;;7.10;99.90;;;;;;5383133;26;20003;-76
2024/04/17 08:45:59;;;;;;;5.80;2.38;;;7.10;99.90;;;;;;5420877;26;20021;-75
2024/04/17 08:48:25;;;;;;;3.42;2.42;;;7.20;99.90;;;;;;5421739;26;20073;-76
2024/04/17 08:50:51;;;;;;;5.35;2.65;;;7.40;99.90;;;;;;5434721;26;20347;-76
2024/04/17 08:53:18;;;;;;;5.57;2.78;;;7.50;99.90;;;;;;5396143;26;20013;-76
2024/04/17 08:55:43;;;;;;;4.43;2.33;;;7.70;99.90;;;;;;5376710;26;20052;-76
2024/04/17 08:58:09;;;;;;;3.83;2.80;;;7.80;99.90;;;;;;5373364;26;20355;-75
2024/04/17 09:00:35;;;;;;;4.07;2.80;;;7.90;99.90;;;;;;5403751;26;19999;-75
2024/04/17 09:03:01;;;;;;;6.47;2.53;;;7.90;99.90;;;;;;5394409;26;20011;-76
2024/04/17 09:05:27;;;;;;;3.45;2.03;;;8.00;99.90;;;;;;5407484;26;19995;-76
2024/04/17 09:07:53;;;;;;;5.13;2.13;;;8.10;99.90;;;;;;5434943;26;20003;-77
2024/04/17 09:10:19;;;;;;;3.83;2.15;;;8.20;99.90;;;;;;5406998;26;20000;-76
2024/04/17 09:12:47;;;;;;;5.30;2.90;;;8.30;99.90;;;;;;5399879;26;20552;-77
2024/04/17 09:15:13;;;;;;;2.75;2.40;;;8.40;99.90;;;;;;5423936;26;20027;-76
2024/04/17 09:17:39;;;;;;;3.63;3.33;;;8.40;99.90;;;;;;5430858;26;20051;-77
2024/04/17 09:20:05;;;;;;;5.13;3.30;;;8.60;99.90;;;;;;5431871;26;19995;-76
2024/04/17 09:22:32;;;;;;;4.50;3.67;;;8.70;99.90;;;;;;5426123;26;20008;-77
2024/04/17 09:24:57;;;;;;;4.60;3.10;;;8.90;99.90;;;;;;5426066;26;20010;-77
2024/04/17 09:27:23;;;;;;;6.07;3.45;;;9.10;99.90;;;;;;5422898;26;20031;-76
2024/04/17 09:29:48;;;;;;;4.70;3.53;;;9.30;99.90;;;;;;5419065;26;20003;-76
2024/04/17 09:32:15;;;;;;;3.92;3.53;;;9.30;99.90;;;;;;5418364;26;20499;-76
2024/04/17 09:34:40;;;;;;;3.70;2.88;;;9.60;99.90;;;;;;5399416;26;19999;-76
2024/04/17 09:37:08;;;;;;;4.75;3.40;;;9.70;99.90;;;;;;5433976;26;20012;-77
2024/04/17 09:39:34;;;;;;;2.60;2.40;;;9.90;99.90;;;;;;5406297;26;20087;-77
2024/04/17 09:41:59;;;;;;;4.53;3.20;;;10.00;99.90;;;;;;5427740;26;20014;-77
2024/04/17 09:44:25;;;;;;;3.22;2.78;;;10.20;99.90;;;;;;5379368;26;20125;-77
2024/04/17 09:46:53;;;;;;;3.53;2.00;;;10.60;99.90;;;;;;5431772;26;20053;-76
2024/04/17 09:49:21;;;;;;;5.20;2.13;;;10.70;99.90;;;;;;5401166;26;20009;-76
2024/04/17 09:51:48;;;;;;;3.28;2.00;;;10.90;99.90;;;;;;5428593;26;20010;-77
2024/04/17 09:54:13;;;;;;;2.67;1.38;;;11.20;99.90;;;;;;5401748;26;20490;-77
2024/04/17 09:56:42;;;;;;;1.92;1.25;;;11.40;99.90;;;;;;5396378;26;20350;-77
2024/04/17 09:59:08;;;;;;;2.83;1.40;;;11.60;99.90;;;;;;5426208;26;20350;-77
2024/04/17 10:01:34;;;;;;;1.58;1.05;;;11.70;99.90;;;;;;5437237;26;20037;-77
2024/04/17 10:03:59;;;;;;;1.95;1.10;;;12.00;99.90;;;;;;5432141;26;19995;-75
2024/04/17 10:06:30;;;;;;;2.78;1.00;;;12.30;99.90;;;;;;5431947;26;20014;-77
2024/04/17 10:08:56;;;;;;;2.50;0.93;;;12.50;99.90;;;;;;5402365;26;20343;-76
2024/04/17 10:11:21;;;;;;;1.92;0.85;;;12.80;99.90;;;;;;5434998;26;19995;-75
2024/04/17 10:13:48;;;;;;;3.30;1.55;;;13.00;99.90;;;;;;5398473;26;20340;-76
2024/04/17 10:16:13;;;;;;;2.45;1.10;;;13.20;99.90;;;;;;5405891;26;20018;-76
2024/04/17 10:18:39;;;;;;;4.13;1.00;;;13.50;99.90;;;;;;5432738;26;19999;-75
2024/04/17 10:21:04;;;;;;;1.73;1.13;;;13.60;99.90;;;;;;5406235;26;20003;-75
2024/04/17 10:23:30;;;;;;;2.33;0.98;;;13.70;99.90;;;;;;5371983;26;20010;-75
2024/04/17 10:25:58;;;;;;;2.88;1.08;;;13.90;99.90;;;;;;5436628;26;20113;-75
2024/04/17 10:28:25;;;;;;;4.20;1.23;;;14.00;99.90;;;;;;5428020;26;20327;-76
2024/04/17 10:30:56;;;;;;;7.13;2.03;;;13.90;99.90;;;;;;5435466;26;20000;-76
2024/04/17 10:33:34;;;;;;;1.98;1.27;;;14.10;99.90;;;;;;5373891;26;20018;-76
2024/04/17 10:36:01;;;;;;;6.25;1.70;;;14.20;99.90;;;;;;5403719;26;20031;-77
2024/04/17 10:38:27;;;;;;;3.67;1.20;;;14.30;99.90;;;;;;5442131;26;20021;-77
2024/04/17 10:40:55;;;;;;;3.30;1.33;;;14.30;99.90;;;;;;5433119;26;20000;-78
2024/04/17 10:43:22;;;;;;;3.17;1.00;;;14.70;99.90;;;;;;5404969;26;20450;-77
2024/04/17 10:46:20;;;;;;;6.35;1.38;;;15.20;99.90;;;;;;5425660;26;20031;-77
2024/04/17 10:48:46;;;;;;;8.98;1.40;;;15.50;99.90;;;;;;5380675;26;20047;-77
2024/04/17 10:51:14;;;;;;;2.10;0.95;;;15.50;99.90;;;;;;5439549;26;20463;-77
2024/04/17 10:53:45;;;;;;;2.15;1.15;;;15.60;99.90;;;;;;5419303;26;19999;-77
2024/04/17 10:56:11;;;;;;;4.70;1.80;;;15.70;99.90;;;;;;5434960;26;20009;-77
2024/04/17 10:58:37;;;;;;;3.47;1.45;;;15.40;99.90;;;;;;5429545;26;20014;-77
2024/04/17 11:01:03;;;;;;;3.15;1.20;;;14.90;99.90;;;;;;5424922;26;19999;-78
2024/04/17 11:03:29;;;;;;;6.78;1.92;;;14.70;99.90;;;;;;5433387;26;20013;-77
2024/04/17 11:05:54;;;;;;;5.07;1.88;;;14.40;99.90;;;;;;5400690;26;20003;-77
2024/04/17 11:08:20;;;;;;;3.13;2.38;;;14.10;99.90;;;;;;5414901;26;20019;-78
2024/04/17 11:10:46;;;;;;;4.75;2.33;;;13.80;99.90;;;;;;5402661;26;19999;-77
2024/04/17 11:13:15;;;;;;;4.50;2.17;;;13.50;99.90;;;;;;5410674;26;20006;-78
2024/04/17 11:15:41;;;;;;;4.22;2.10;;;13.30;99.90;;;;;;5413745;26;20141;-77
2024/04/17 11:18:08;;;;;;;3.80;2.10;;;13.20;99.90;;;;;;5431515;26;20015;-77
2024/04/17 11:20:38;;;;;;;1.83;1.67;;;12.90;99.90;;;;;;5431781;26;20113;-77
2024/04/17 11:23:05;;;;;;;1.58;1.10;;;12.80;99.90;;;;;;5420784;26;20027;-78
2024/04/17 11:25:31;;;;;;;1.30;1.20;;;12.50;99.90;;;;;;5426015;26;20350;-77
2024/04/17 11:27:56;;;;;;;5.05;1.50;;;12.60;99.90;;;;;;5433904;26;20008;-77
2024/04/17 11:30:22;;;;;;;3.22;1.10;;;12.90;99.90;;;;;;5399505;26;20011;-78
2024/04/17 11:32:48;;;;;;;1.90;0.77;;;13.00;99.90;;;;;;5430280;26;20010;-78
2024/04/17 11:35:17;;;;;;;1.10;0.75;;;13.10;99.90;;;;;;5429759;26;20035;-77
2024/04/17 11:37:47;;;;;;;1.15;1.05;;;13.20;99.90;;;;;;5398401;26;20455;-78
2024/04/17 11:40:15;;;;;;;4.22;0.77;;;13.30;99.90;;;;;;5428497;26;20009;-78
2024/04/17 11:42:47;;;;;;;2.75;0.70;;;13.30;99.90;;;;;;5435993;26;20443;-78
2024/04/17 11:45:13;;;;;;;4.03;1.17;;;13.50;99.90;;;;;;5423105;26;19999;-77
2024/04/17 11:47:40;;;;;;;1.25;0.93;;;13.80;99.90;;;;;;5435506;26;20521;-78
2024/04/17 11:50:07;;;;;;;2.03;0.60;;;14.00;99.90;;;;;;5408511;26;20522;-78
2024/04/17 11:52:33;;;;;;;1.40;1.02;;;14.00;99.90;;;;;;5413547;26;20026;-77
2024/04/17 11:54:58;;;;;;;2.22;0.88;;;14.30;99.90;;;;;;5431782;26;20014;-78
2024/04/17 11:57:24;;;;;;;2.42;0.90;;;14.60;99.90;;;;;;5404786;26;20039;-78
2024/04/17 11:59:49;;;;;;;3.05;0.93;;;14.90;99.90;;;;;;5433509;26;20017;-78
2024/04/17 12:02:15;;;;;;;3.08;1.05;;;15.00;99.90;;;;;;5439190;26;20014;-77
2024/04/17 12:04:42;;;;;;;3.00;1.63;;;15.10;99.90;;;;;;5406831;26;20030;-77
2024/04/17 12:07:08;;;;;;;2.25;0.80;;;15.30;99.90;;;;;;5433407;26;20455;-77
2024/04/17 12:09:34;;;;;;;2.63;1.27;;;15.30;99.90;;;;;;5437885;26;20000;-78
2024/04/17 12:12:00;;;;;;;7.55;1.48;;;15.00;99.90;;;;;;5433944;26;19999;-79
2024/04/17 12:14:25;;;;;;;4.25;1.10;;;14.90;99.90;;;;;;5434903;26;20011;-78
2024/04/17 12:16:51;;;;;;;11.77;1.13;;;14.50;99.90;;;;;;5431877;26;20015;-78
2024/04/17 12:19:16;;;;;;;1.98;0.77;;;13.70;99.90;;;;;;5411332;26;19996;-78
2024/04/17 12:21:42;;;;;;;4.90;0.93;;;13.10;99.90;;;;;;5438825;26;20448;-78
2024/04/17 12:24:16;;;;;;;2.67;0.85;;;12.90;99.90;;;;;;5426017;26;20008;-78
2024/04/17 12:26:52;;;;;;;2.00;0.98;;;12.50;99.90;;;;;;5411613;26;20007;-77
2024/04/17 12:29:20;;;;;;;7.40;1.45;;;12.30;99.90;;;;;;5402272;26;20010;-76
2024/04/17 12:31:46;;;;;;;3.30;0.88;;;12.20;99.90;;;;;;5428066;26;20479;-77
2024/04/17 12:34:11;;;;;;;3.65;0.93;;;12.10;99.90;;;;;;5426843;26;20541;-76
2024/04/17 12:36:37;;;;;;;5.15;1.05;;;12.10;99.90;;;;;;5426188;26;20003;-78
2024/04/17 12:39:03;;;;;;;6.40;1.65;;;12.00;99.90;;;;;;5427609;26;20465;-77
2024/04/17 12:41:29;;;;;;;4.25;1.23;;;12.00;99.90;;;;;;5438439;26;20052;-77